Spout Spring, Virginia
Current Conditions -  °F | °C
As of 7:15 PM on Wednesday 26 Nov 2014 (Local Time) from K0V4 Reporting Station
Overcast Overcast  
Wind Chill: 42°   Ceiling: 4200
Heat Index: 42°   Visibility: 10mi
Dew Point: 41°   Wind: 3mph
Humidity: 99%   Direction: 220°SW
Pressure: 30"   Gusts: NA
Location:  37.35°N, 78.91°W
Report Text: K0V4 270015Z AUTO 22003KT 10SM SCT032 BKN042 OVC065 05/05 A3000 RMK AO1 T00530051
Loading
Personal Weather Stations






























Interactive Weather Map New forecast layout! Learn more

10-Day Weather Forecast

Advertisements
Track Severe Weather on mobile